createdAt,value
2023-02-06T00:01:38.277Z,11.05
2023-02-06T00:04:05.588Z,11.98
2023-02-06T00:06:36.080Z,11.57
2023-02-06T00:09:09.383Z,12.30
2023-02-06T00:11:38.708Z,14.30
2023-02-06T00:14:05.914Z,18.58
2023-02-06T00:19:01.594Z,14.50
2023-02-06T00:23:59.272Z,12.98
2023-02-06T00:28:56.540Z,12.80
2023-02-06T00:31:23.338Z,12.07
2023-02-06T00:33:52.667Z,12.32
2023-02-06T00:36:19.388Z,13.50
2023-02-06T00:38:46.146Z,12.75
2023-02-06T00:41:13.031Z,12.05
2023-02-06T00:43:40.873Z,13.50
2023-02-06T00:46:07.685Z,11.88
2023-02-06T00:48:34.658Z,12.82
2023-02-06T00:51:01.740Z,12.88
2023-02-06T00:55:57.468Z,12.85
2023-02-06T01:00:55.544Z,12.15
2023-02-06T01:03:22.412Z,12.15
2023-02-06T01:05:49.351Z,13.68
2023-02-06T01:08:16.222Z,12.98
2023-02-06T01:10:47.058Z,12.55
2023-02-06T01:13:13.871Z,12.13
2023-02-06T01:15:40.748Z,12.13
2023-02-06T01:18:07.757Z,11.70
2023-02-06T01:20:37.306Z,12.57
2023-02-06T01:23:04.088Z,12.73
2023-02-06T01:27:57.621Z,12.32
2023-02-06T01:32:51.253Z,12.63
2023-02-06T01:35:18.126Z,12.02
2023-02-06T01:37:47.288Z,11.07
2023-02-06T01:40:16.469Z,12.48
2023-02-06T01:42:44.173Z,12.18
2023-02-06T01:48:01.422Z,11.52
2023-02-06T01:52:56.309Z,12.20
2023-02-06T01:57:49.998Z,12.32
2023-02-06T02:00:17.328Z,14.75
2023-02-06T02:02:49.234Z,13.05
2023-02-06T02:05:19.555Z,14.88
2023-02-06T02:08:10.472Z,13.50
2023-02-06T02:10:40.657Z,12.88
2023-02-06T02:13:07.482Z,12.13
2023-02-06T02:15:49.576Z,13.05
2023-02-06T02:21:21.783Z,12.55
2023-02-06T02:23:56.484Z,12.43
2023-02-06T02:29:17.842Z,12.52
2023-02-06T02:31:49.867Z,12.50
2023-02-06T02:35:07.578Z,11.85
2023-02-06T02:38:05.094Z,11.38
2023-02-06T02:41:12.987Z,11.00
2023-02-06T02:43:55.760Z,12.43
2023-02-06T02:49:07.396Z,12.05
2023-02-06T02:51:36.544Z,12.45
2023-02-06T02:54:04.278Z,12.68
2023-02-06T02:59:05.319Z,11.30
2023-02-06T03:01:37.298Z,10.82
2023-02-06T03:07:09.657Z,10.80
2023-02-06T03:09:53.933Z,11.60
2023-02-06T03:12:39.931Z,11.40
2023-02-06T03:15:12.758Z,12.93
2023-02-06T03:17:46.617Z,12.65
2023-02-06T03:20:16.068Z,11.52
2023-02-06T03:22:49.023Z,11.57
2023-02-06T03:25:23.852Z,10.88
2023-02-06T03:27:53.602Z,11.70
2023-02-06T03:30:24.119Z,11.48
2023-02-06T03:32:56.741Z,10.02
2023-02-06T03:37:56.695Z,12.90
2023-02-06T03:42:55.035Z,10.77
2023-02-06T03:48:02.481Z,12.40
2023-02-06T03:53:04.401Z,12.32
2023-02-06T03:58:06.471Z,13.38
2023-02-06T04:03:03.888Z,10.05
2023-02-06T04:08:00.694Z,12.57
2023-02-06T04:10:27.651Z,11.20
2023-02-06T04:12:57.496Z,13.07
2023-02-06T04:18:00.437Z,11.18
2023-02-06T04:20:28.871Z,12.90
2023-02-06T04:22:55.719Z,12.00
2023-02-06T04:25:24.861Z,12.38
2023-02-06T04:27:52.098Z,13.15
2023-02-06T04:30:19.214Z,12.10
2023-02-06T04:32:46.337Z,11.90
2023-02-06T04:35:15.980Z,12.60
2023-02-06T04:37:42.837Z,12.35
2023-02-06T04:40:10.205Z,13.60
2023-02-06T04:42:37.027Z,12.05
2023-02-06T04:45:04.268Z,12.10
2023-02-06T04:47:31.177Z,12.85
2023-02-06T04:49:57.968Z,11.82
2023-02-06T04:52:24.760Z,13.30
2023-02-06T04:54:52.509Z,12.60
2023-02-06T04:57:23.300Z,11.85
2023-02-06T05:02:22.103Z,10.65
2023-02-06T05:04:49.110Z,11.65
2023-02-06T05:07:16.129Z,11.45
2023-02-06T05:09:43.039Z,12.25
2023-02-06T05:12:11.215Z,12.45
2023-02-06T05:14:41.012Z,13.00
2023-02-06T05:17:07.874Z,11.60
2023-02-06T05:22:01.623Z,11.27
2023-02-06T05:24:28.754Z,11.50
2023-02-06T05:26:58.456Z,11.50
2023-02-06T05:29:25.941Z,11.45
2023-02-06T05:31:53.024Z,12.02
2023-02-06T05:34:22.145Z,11.90
2023-02-06T05:36:49.010Z,13.15
2023-02-06T05:39:15.921Z,13.38
2023-02-06T05:41:42.946Z,13.10
2023-02-06T05:44:12.332Z,14.23
2023-02-06T05:46:39.326Z,13.27
2023-02-06T05:49:11.939Z,14.05
2023-02-06T05:51:38.747Z,13.25
2023-02-06T05:54:06.110Z,14.25
2023-02-06T05:56:36.048Z,14.13
2023-02-06T05:59:03.067Z,13.55
2023-02-06T06:04:07.104Z,13.10
2023-02-06T06:09:06.296Z,14.07
2023-02-06T06:11:35.765Z,12.88
2023-02-06T06:14:04.049Z,12.20
2023-02-06T06:16:31.843Z,13.15
2023-02-06T06:19:01.902Z,14.60
2023-02-06T06:21:31.172Z,13.18
2023-02-06T06:23:59.927Z,12.95
2023-02-06T06:26:32.907Z,13.30
2023-02-06T06:29:00.116Z,13.02
2023-02-06T06:31:27.374Z,13.50
2023-02-06T06:33:54.523Z,12.73
2023-02-06T06:36:26.282Z,12.45
2023-02-06T06:38:55.738Z,14.43
2023-02-06T06:41:42.714Z,13.95
2023-02-06T06:44:12.528Z,12.68
2023-02-06T06:46:39.516Z,13.80
2023-02-06T06:49:06.762Z,12.60
2023-02-06T06:54:01.097Z,14.30
2023-02-06T06:56:30.217Z,14.70
2023-02-06T06:59:03.153Z,15.80
2023-02-06T07:01:32.921Z,13.60
2023-02-06T07:04:00.645Z,15.23
2023-02-06T07:09:01.317Z,14.35
2023-02-06T07:14:05.653Z,16.67
2023-02-06T07:16:37.563Z,15.57
2023-02-06T07:19:08.397Z,14.77
2023-02-06T07:21:54.376Z,14.20
2023-02-06T07:24:26.273Z,15.43
2023-02-06T07:27:05.553Z,14.73
2023-02-06T07:32:27.804Z,13.55
2023-02-06T07:35:05.305Z,14.77
2023-02-06T07:37:42.032Z,15.98
2023-02-06T07:40:12.249Z,16.52
2023-02-06T07:42:42.249Z,16.02
2023-02-06T07:45:16.692Z,15.93
2023-02-06T07:47:48.965Z,14.90
2023-02-06T07:50:19.319Z,16.58
2023-02-06T07:55:31.052Z,15.32
2023-02-06T07:58:03.963Z,15.93
2023-02-06T08:00:34.126Z,14.70
2023-02-06T08:03:02.946Z,15.60
2023-02-06T08:05:32.742Z,15.05
2023-02-06T08:08:00.268Z,16.38
2023-02-06T08:10:29.519Z,15.10
2023-02-06T08:12:58.914Z,15.40
2023-02-06T08:15:27.820Z,16.33
2023-02-06T08:17:54.748Z,16.42
2023-02-06T08:20:23.126Z,15.77
2023-02-06T08:22:50.356Z,15.60
2023-02-06T08:25:23.990Z,14.73
2023-02-06T08:27:59.656Z,16.63
2023-02-06T08:30:32.567Z,17.77
2023-02-06T08:33:04.345Z,16.63
2023-02-06T08:35:34.662Z,17.10
2023-02-06T08:38:04.615Z,16.08
2023-02-06T08:40:50.486Z,15.93
2023-02-06T08:43:31.564Z,15.98
2023-02-06T08:46:06.996Z,14.57
2023-02-06T08:48:36.752Z,17.30
2023-02-06T08:51:15.755Z,16.50
2023-02-06T08:53:46.744Z,16.15
2023-02-06T08:56:16.659Z,16.35
2023-02-06T08:58:51.278Z,15.23
2023-02-06T09:01:18.712Z,16.55
2023-02-06T09:04:02.724Z,15.52
2023-02-06T09:09:20.322Z,17.58
2023-02-06T09:11:47.789Z,16.52
2023-02-06T09:14:19.530Z,16.15
2023-02-06T09:17:01.316Z,17.40
2023-02-06T09:19:28.624Z,20.90
2023-02-06T09:21:57.106Z,21.00
2023-02-06T09:24:24.375Z,20.38
2023-02-06T09:26:59.918Z,19.10
2023-02-06T09:32:06.261Z,16.73
2023-02-06T09:34:36.321Z,17.20
2023-02-06T09:37:09.809Z,17.53
2023-02-06T09:39:45.584Z,17.33
2023-02-06T09:45:27.612Z,17.63
2023-02-06T09:48:04.808Z,16.48
2023-02-06T09:50:51.746Z,17.85
2023-02-06T09:53:49.148Z,17.67
2023-02-06T09:59:24.412Z,17.55
2023-02-06T10:02:16.101Z,18.65
2023-02-06T10:05:12.362Z,18.00
2023-02-06T10:08:00.628Z,19.55
2023-02-06T10:10:58.509Z,21.02
2023-02-06T10:13:48.127Z,18.13
2023-02-06T10:16:47.280Z,19.98
2023-02-06T10:19:48.649Z,19.35
2023-02-06T10:25:16.583Z,19.05
2023-02-06T10:27:55.358Z,17.80
2023-02-06T10:30:57.032Z,20.65
2023-02-06T10:37:18.451Z,18.73
2023-02-06T10:40:11.898Z,18.60
2023-02-06T10:46:26.914Z,19.08
2023-02-06T10:49:35.491Z,17.17
2023-02-06T10:52:49.150Z,16.45
2023-02-06T10:55:34.189Z,16.35
2023-02-06T10:58:34.251Z,16.17
2023-02-06T11:01:20.041Z,14.38
2023-02-06T11:04:15.418Z,17.95
2023-02-06T11:06:51.164Z,15.48
2023-02-06T11:09:23.528Z,14.68
2023-02-06T11:12:04.640Z,14.50
2023-02-06T11:14:50.656Z,14.50
2023-02-06T11:17:28.293Z,14.75
2023-02-06T11:20:15.266Z,14.50
2023-02-06T11:22:55.311Z,13.45
2023-02-06T11:25:30.506Z,12.30
2023-02-06T11:28:03.009Z,12.55
2023-02-06T11:30:51.616Z,13.32
2023-02-06T11:33:33.859Z,12.63
2023-02-06T11:36:03.093Z,12.18
2023-02-06T11:38:36.999Z,14.32
2023-02-06T11:41:13.020Z,11.60
2023-02-06T11:43:41.425Z,13.15
2023-02-06T11:46:18.861Z,11.88
2023-02-06T11:49:07.547Z,12.65
2023-02-06T11:51:47.158Z,11.57
2023-02-06T11:54:29.118Z,12.25
2023-02-06T12:00:25.529Z,11.75
2023-02-06T12:03:06.025Z,11.85
2023-02-06T12:08:26.760Z,11.85
2023-02-06T12:11:05.126Z,11.52
2023-02-06T12:13:48.991Z,11.30
2023-02-06T12:16:42.861Z,10.75
2023-02-06T12:22:39.751Z,9.82
2023-02-06T12:25:44.562Z,11.23
2023-02-06T12:28:58.305Z,10.00
2023-02-06T12:36:09.140Z,9.57
2023-02-06T12:39:04.598Z,9.98
2023-02-06T12:42:32.183Z,9.27
2023-02-06T12:45:12.123Z,9.15
2023-02-06T12:48:18.161Z,10.32
2023-02-06T12:51:11.450Z,9.57
2023-02-06T12:54:12.751Z,9.07
2023-02-06T12:57:01.899Z,10.13
2023-02-06T12:59:58.333Z,10.95
2023-02-06T13:03:08.582Z,10.73
2023-02-06T13:08:58.575Z,9.75
2023-02-06T13:11:43.543Z,9.13
2023-02-06T13:14:19.547Z,9.63
2023-02-06T13:17:02.144Z,10.15
2023-02-06T13:20:20.532Z,10.95
2023-02-06T13:23:20.806Z,10.40
2023-02-06T13:25:57.895Z,9.40
2023-02-06T13:28:30.604Z,10.27
2023-02-06T13:31:35.965Z,9.70
2023-02-06T13:39:35.766Z,10.35
2023-02-06T13:42:33.276Z,10.57
2023-02-06T13:45:06.972Z,11.23
2023-02-06T13:51:21.971Z,10.27
2023-02-06T13:53:57.075Z,10.55
2023-02-06T13:56:44.541Z,11.07
2023-02-06T14:02:29.699Z,9.75
2023-02-06T14:05:19.257Z,9.93
2023-02-06T14:08:08.383Z,10.32
2023-02-06T14:11:25.229Z,9.90
2023-02-06T14:14:17.483Z,8.68
2023-02-06T14:20:05.791Z,10.80
2023-02-06T14:23:20.989Z,10.75
2023-02-06T14:25:58.900Z,11.10
2023-02-06T14:29:14.370Z,9.90
2023-02-06T14:32:18.731Z,9.93
2023-02-06T14:35:01.975Z,9.60
2023-02-06T14:38:01.068Z,10.23
2023-02-06T14:40:42.753Z,9.77
2023-02-06T14:43:20.409Z,9.85
2023-02-06T14:48:40.016Z,10.27
2023-02-06T14:51:22.040Z,10.10
2023-02-06T14:54:54.786Z,9.23
2023-02-06T14:57:52.784Z,9.77
2023-02-06T15:00:45.963Z,10.18
2023-02-06T15:03:22.906Z,9.48
2023-02-06T15:06:05.744Z,10.05
2023-02-06T15:08:33.887Z,10.35
2023-02-06T15:11:24.379Z,10.25
2023-02-06T15:14:05.385Z,10.93
2023-02-06T15:16:50.210Z,11.65
2023-02-06T15:19:24.759Z,10.95
2023-02-06T15:22:15.262Z,12.05
2023-02-06T15:25:03.279Z,11.93
2023-02-06T15:28:14.466Z,11.10
2023-02-06T15:40:07.836Z,11.55
2023-02-06T15:42:52.059Z,11.35
2023-02-06T15:48:59.859Z,11.18
2023-02-06T15:51:41.269Z,11.10
2023-02-06T15:54:39.235Z,12.77
2023-02-06T15:57:36.491Z,17.25
2023-02-06T16:00:36.987Z,11.07
2023-02-06T16:03:24.986Z,11.02
2023-02-06T16:09:27.955Z,10.57
2023-02-06T16:14:58.144Z,10.98
2023-02-06T16:18:12.221Z,10.05
2023-02-06T16:20:44.288Z,10.50
2023-02-06T16:23:28.121Z,9.95
2023-02-06T16:30:09.571Z,9.45
2023-02-06T16:32:42.710Z,10.23
2023-02-06T16:35:19.408Z,9.65
2023-02-06T16:38:00.945Z,10.27
2023-02-06T16:40:39.129Z,11.02
2023-02-06T16:43:13.695Z,10.07
2023-02-06T16:45:51.099Z,9.23
2023-02-06T16:48:31.838Z,9.20
2023-02-06T16:51:10.366Z,8.80
2023-02-06T16:54:40.047Z,8.63
2023-02-06T16:57:29.309Z,8.95
2023-02-06T17:00:13.058Z,9.50
2023-02-06T17:02:55.982Z,8.05
2023-02-06T17:05:28.429Z,9.35
2023-02-06T17:09:02.397Z,9.43
2023-02-06T17:14:36.618Z,8.60
2023-02-06T17:17:20.645Z,8.15
2023-02-06T17:20:00.730Z,8.13
2023-02-06T17:22:38.181Z,8.85
2023-02-06T17:25:10.399Z,9.85
2023-02-06T17:27:45.723Z,13.07
2023-02-06T17:30:19.443Z,10.52
2023-02-06T17:33:01.201Z,10.18
2023-02-06T17:35:33.706Z,8.60
2023-02-06T17:38:13.324Z,8.70
2023-02-06T17:40:41.216Z,7.97
2023-02-06T17:43:20.708Z,8.13
2023-02-06T17:45:56.532Z,9.05
2023-02-06T17:48:41.346Z,9.93
2023-02-06T17:51:24.336Z,14.65
2023-02-06T17:54:10.676Z,10.60
2023-02-06T17:57:03.195Z,9.73
2023-02-06T17:59:49.872Z,9.82
2023-02-06T18:02:31.001Z,6.78
2023-02-06T18:05:32.152Z,6.50
2023-02-06T18:08:24.626Z,6.57
2023-02-06T18:11:39.793Z,6.97
2023-02-06T18:14:28.554Z,6.80
2023-02-06T18:17:21.036Z,6.28
2023-02-06T18:20:19.113Z,6.55
2023-02-06T18:22:57.426Z,6.43
2023-02-06T18:25:33.282Z,7.88
2023-02-06T18:28:21.406Z,11.30
2023-02-06T18:30:55.665Z,12.68
2023-02-06T18:33:41.462Z,13.32
2023-02-06T18:36:22.490Z,8.27
2023-02-06T18:38:57.588Z,7.38
2023-02-06T18:41:46.015Z,7.65
2023-02-06T18:44:50.034Z,7.28
2023-02-06T18:50:20.179Z,7.43
2023-02-06T18:52:55.432Z,8.15
2023-02-06T18:55:24.743Z,7.78
2023-02-06T18:58:03.558Z,8.32
2023-02-06T19:00:38.300Z,7.82
2023-02-06T19:03:18.858Z,8.15
2023-02-06T19:06:00.833Z,8.30
2023-02-06T19:11:04.013Z,7.55
2023-02-06T19:13:34.308Z,7.65
2023-02-06T19:16:23.182Z,6.88
2023-02-06T19:19:10.414Z,8.70
2023-02-06T19:21:40.599Z,7.57
2023-02-06T19:24:42.588Z,8.82
2023-02-06T19:27:44.514Z,6.97
2023-02-06T19:30:16.846Z,7.88
2023-02-06T19:35:29.104Z,7.20
2023-02-06T19:38:02.162Z,7.30
2023-02-06T19:43:05.579Z,6.95
2023-02-06T19:45:38.088Z,7.80
2023-02-06T19:48:12.251Z,8.38
2023-02-06T19:53:25.387Z,7.20
2023-02-06T19:55:52.348Z,6.95
2023-02-06T20:01:24.117Z,8.13
2023-02-06T20:04:04.424Z,7.38
2023-02-06T20:06:37.108Z,6.88
2023-02-06T20:09:15.987Z,5.80
2023-02-06T20:11:45.195Z,6.78
2023-02-06T20:14:16.039Z,6.40
2023-02-06T20:19:24.902Z,5.63
2023-02-06T20:21:59.879Z,5.35
2023-02-06T20:24:30.635Z,5.50
2023-02-06T20:29:45.041Z,5.85
2023-02-06T20:34:43.510Z,5.43
2023-02-06T20:40:18.572Z,5.45
2023-02-06T20:42:48.285Z,6.20
2023-02-06T20:45:20.568Z,6.10
2023-02-06T20:50:22.681Z,6.55
2023-02-06T20:55:32.974Z,7.32
2023-02-06T20:58:08.688Z,6.32
2023-02-06T21:00:38.399Z,7.45
2023-02-06T21:03:15.529Z,6.55
2023-02-06T21:05:46.047Z,7.18
2023-02-06T21:08:18.359Z,7.75
2023-02-06T21:13:19.730Z,6.97
2023-02-06T21:15:56.807Z,7.05
2023-02-06T21:18:28.652Z,7.10
2023-02-06T21:21:11.174Z,7.47
2023-02-06T21:23:47.136Z,8.27
2023-02-06T21:26:18.367Z,8.52
2023-02-06T21:28:50.149Z,14.10
2023-02-06T21:31:23.653Z,10.45
2023-02-06T21:36:25.099Z,9.15
2023-02-06T21:39:00.557Z,8.02
2023-02-06T21:44:06.364Z,8.68
2023-02-06T21:46:38.139Z,9.55
2023-02-06T21:49:11.774Z,8.75
2023-02-06T21:54:18.648Z,9.68
2023-02-06T21:59:27.879Z,10.90
2023-02-06T22:01:54.991Z,11.05
2023-02-06T22:04:23.087Z,10.48
2023-02-06T22:09:28.686Z,10.77
2023-02-06T22:11:56.338Z,10.73
2023-02-06T22:14:42.638Z,10.20
2023-02-06T22:17:17.107Z,10.52
2023-02-06T22:19:46.160Z,12.18
2023-02-06T22:22:17.005Z,11.15
2023-02-06T22:24:44.563Z,11.00
2023-02-06T22:27:15.866Z,10.55
2023-02-06T22:29:43.149Z,10.82
2023-02-06T22:32:13.773Z,10.98
2023-02-06T22:34:40.627Z,12.00
2023-02-06T22:37:10.308Z,11.35
2023-02-06T22:39:40.239Z,10.70
2023-02-06T22:42:07.052Z,11.60
2023-02-06T22:44:36.676Z,10.55
2023-02-06T22:47:03.835Z,11.18
2023-02-06T22:49:31.322Z,12.27
2023-02-06T22:52:08.277Z,11.32
2023-02-06T22:54:46.480Z,11.75
2023-02-06T22:57:16.050Z,13.13
2023-02-06T22:59:46.033Z,11.95
2023-02-06T23:02:18.257Z,11.80
2023-02-06T23:04:57.943Z,12.38
2023-02-06T23:07:32.349Z,12.20
2023-02-06T23:10:01.646Z,11.60
2023-02-06T23:12:28.578Z,12.45
2023-02-06T23:14:55.756Z,12.75
2023-02-06T23:17:30.277Z,12.50
2023-02-06T23:19:59.596Z,12.73
2023-02-06T23:22:26.615Z,14.00
2023-02-06T23:27:29.383Z,13.60
2023-02-06T23:29:59.643Z,14.05
2023-02-06T23:32:29.573Z,13.40
2023-02-06T23:35:04.172Z,12.77
2023-02-06T23:37:34.426Z,13.15
2023-02-06T23:40:14.496Z,12.50
2023-02-06T23:42:41.593Z,14.07
2023-02-06T23:45:08.711Z,13.30
2023-02-06T23:47:35.587Z,13.98
2023-02-06T23:50:02.425Z,14.60
2023-02-06T23:52:29.516Z,13.90
2023-02-06T23:54:58.930Z,14.00
2023-02-06T23:57:25.783Z,15.27
2023-02-06T23:59:58.596Z,14.85
